createdAt,value
2018-04-06T00:00:25.257Z,18.80
2018-04-06T00:00:58.646Z,18.90
2018-04-06T00:01:30.634Z,18.80
2018-04-06T00:02:02.722Z,18.80
2018-04-06T00:02:35.662Z,18.80
2018-04-06T00:03:07.694Z,18.80
2018-04-06T00:03:39.686Z,18.80
2018-04-06T00:04:12.340Z,18.90
2018-04-06T00:04:44.341Z,18.80
2018-04-06T00:05:16.446Z,18.90
2018-04-06T00:05:48.509Z,18.80
2018-04-06T00:06:21.236Z,18.80
2018-04-06T00:06:53.436Z,18.80
2018-04-06T00:07:26.080Z,18.80
2018-04-06T00:07:58.141Z,18.80
2018-04-06T00:08:30.205Z,18.80
2018-04-06T00:09:03.038Z,18.80
2018-04-06T00:09:35.585Z,18.80
2018-04-06T00:10:07.727Z,18.80
2018-04-06T00:10:39.718Z,18.80
2018-04-06T00:11:11.578Z,18.80
2018-04-06T00:11:44.371Z,18.80
2018-04-06T00:12:17.221Z,18.80
2018-04-06T00:12:49.918Z,18.90
2018-04-06T00:13:21.877Z,18.80
2018-04-06T00:13:53.809Z,18.90
2018-04-06T00:14:25.880Z,18.90
2018-04-06T00:14:58.478Z,18.80
2018-04-06T00:15:30.728Z,18.90
2018-04-06T00:16:02.628Z,18.90
2018-04-06T00:16:35.807Z,18.90
2018-04-06T00:17:07.869Z,18.80
2018-04-06T00:17:39.960Z,18.90
2018-04-06T00:18:11.983Z,18.90
2018-04-06T00:18:44.713Z,18.90
2018-04-06T00:19:18.247Z,18.90
2018-04-06T00:19:50.072Z,18.90
2018-04-06T00:20:22.668Z,18.90
2018-04-06T00:20:54.659Z,18.90
2018-04-06T00:21:27.441Z,19.00
2018-04-06T00:22:00.393Z,18.90
2018-04-06T00:22:32.381Z,18.90
2018-04-06T00:23:05.454Z,18.90
2018-04-06T00:23:37.345Z,19.00
2018-04-06T00:24:09.771Z,19.00
2018-04-06T00:24:41.675Z,19.00
2018-04-06T00:25:13.597Z,19.00
2018-04-06T00:25:45.574Z,19.00
2018-04-06T00:26:17.560Z,19.00
2018-04-06T00:26:49.493Z,19.10
2018-04-06T00:27:21.470Z,19.10
2018-04-06T00:27:53.531Z,19.00
2018-04-06T00:28:25.444Z,19.00
2018-04-06T00:28:58.284Z,19.00
2018-04-06T00:29:30.142Z,19.00
2018-04-06T00:30:02.902Z,19.00
2018-04-06T00:30:34.970Z,19.00
2018-04-06T00:31:07.709Z,19.00
2018-04-06T00:31:39.689Z,19.00
2018-04-06T00:32:12.561Z,19.00
2018-04-06T00:32:47.453Z,19.00
2018-04-06T00:33:19.938Z,19.00
2018-04-06T00:33:53.552Z,19.00
2018-04-06T00:34:25.614Z,19.00
2018-04-06T00:34:58.004Z,19.00
2018-04-06T00:35:30.321Z,19.00
2018-04-06T00:36:02.386Z,19.00
2018-04-06T00:36:34.462Z,19.00
2018-04-06T00:37:06.486Z,19.00
2018-04-06T00:37:39.212Z,19.00
2018-04-06T00:38:12.035Z,19.00
2018-04-06T00:38:43.926Z,19.00
2018-04-06T00:39:15.956Z,19.00
2018-04-06T00:39:48.457Z,18.90
2018-04-06T00:40:21.874Z,19.00
2018-04-06T00:40:54.005Z,18.90
2018-04-06T00:41:26.190Z,19.00
2018-04-06T00:41:58.160Z,18.90
2018-04-06T00:42:30.867Z,18.90
2018-04-06T00:43:03.622Z,18.90
2018-04-06T00:43:36.552Z,18.80
2018-04-06T00:44:08.848Z,18.80
2018-04-06T00:44:41.667Z,18.80
2018-04-06T00:45:13.724Z,18.90
2018-04-06T00:45:46.365Z,18.90
2018-04-06T00:46:19.751Z,18.90
2018-04-06T00:46:51.727Z,18.90
2018-04-06T00:47:24.278Z,18.90
2018-04-06T00:47:56.232Z,18.90
2018-04-06T00:48:28.423Z,18.90
2018-04-06T00:49:00.424Z,18.90
2018-04-06T00:49:32.579Z,18.90
2018-04-06T00:50:04.565Z,18.90
2018-04-06T00:50:36.542Z,18.90
2018-04-06T00:51:09.315Z,18.80
2018-04-06T00:51:42.130Z,18.80
2018-04-06T00:52:14.267Z,18.80
2018-04-06T00:52:47.560Z,18.80
2018-04-06T00:53:19.569Z,18.80
2018-04-06T00:53:52.456Z,18.90
2018-04-06T00:54:24.476Z,18.80
2018-04-06T00:54:57.658Z,18.80
2018-04-06T00:55:31.039Z,18.80
2018-04-06T00:56:03.151Z,18.80
2018-04-06T00:56:35.153Z,18.80
2018-04-06T00:57:08.575Z,18.80
2018-04-06T00:57:40.459Z,18.80
2018-04-06T00:58:12.220Z,18.80
2018-04-06T00:58:44.873Z,18.80
2018-04-06T00:59:17.408Z,18.80
2018-04-06T00:59:49.122Z,18.80
2018-04-06T01:00:20.957Z,18.90
2018-04-06T01:00:53.425Z,18.80
2018-04-06T01:01:25.269Z,18.90
2018-04-06T01:01:56.958Z,18.80
2018-04-06T01:02:29.452Z,18.90
2018-04-06T01:03:01.191Z,18.80
2018-04-06T01:03:32.968Z,18.90
2018-04-06T01:04:04.709Z,18.90
2018-04-06T01:04:36.421Z,18.90
2018-04-06T01:05:08.152Z,18.90
2018-04-06T01:05:40.676Z,18.90
2018-04-06T01:06:12.412Z,18.90
2018-04-06T01:06:44.143Z,18.90
2018-04-06T01:07:15.920Z,18.90
2018-04-06T01:07:47.620Z,18.90
2018-04-06T01:08:19.353Z,18.90
2018-04-06T01:08:51.083Z,18.90
2018-04-06T01:09:22.815Z,18.80
2018-04-06T01:09:55.291Z,18.80
2018-04-06T01:10:27.030Z,18.80
2018-04-06T01:10:59.517Z,18.80
2018-04-06T01:11:31.250Z,18.80
2018-04-06T01:12:02.962Z,18.80
2018-04-06T01:12:34.689Z,18.80
2018-04-06T01:13:06.422Z,18.80
2018-04-06T01:13:38.137Z,18.80
2018-04-06T01:14:09.863Z,18.80
2018-04-06T01:14:41.595Z,18.80
2018-04-06T01:15:13.334Z,18.90
2018-04-06T01:15:45.041Z,18.90
2018-04-06T01:16:16.781Z,18.90
2018-04-06T01:16:48.533Z,18.90
2018-04-06T01:17:20.231Z,18.90
2018-04-06T01:17:51.968Z,18.90
2018-04-06T01:18:24.456Z,18.80
2018-04-06T01:18:56.172Z,18.80
2018-04-06T01:19:28.654Z,18.80
2018-04-06T01:20:00.392Z,18.80
2018-04-06T01:20:32.110Z,18.70
2018-04-06T01:21:04.600Z,18.80
2018-04-06T01:21:36.320Z,18.80
2018-04-06T01:22:08.821Z,18.80
2018-04-06T01:22:40.646Z,18.80
2018-04-06T01:23:13.116Z,18.80
2018-04-06T01:23:44.839Z,18.80
2018-04-06T01:24:17.312Z,18.90
2018-04-06T01:24:49.085Z,18.90
2018-04-06T01:25:20.804Z,18.90
2018-04-06T01:25:52.528Z,18.90
2018-04-06T01:26:25.028Z,19.00
2018-04-06T01:26:56.770Z,18.90
2018-04-06T01:27:28.474Z,18.90
2018-04-06T01:28:00.986Z,18.90
2018-04-06T01:28:32.764Z,18.90
2018-04-06T01:29:04.472Z,18.90
2018-04-06T01:29:36.191Z,18.90
2018-04-06T01:30:07.982Z,18.80
2018-04-06T01:30:39.718Z,18.80
2018-04-06T01:31:11.430Z,18.80
2018-04-06T01:31:43.215Z,18.80
2018-04-06T01:32:14.925Z,18.80
2018-04-06T01:32:46.654Z,18.80
2018-04-06T01:33:18.374Z,18.80
2018-04-06T01:33:50.099Z,18.80
2018-04-06T01:34:21.838Z,18.80
2018-04-06T01:34:53.575Z,18.80
2018-04-06T01:35:25.270Z,18.80
2018-04-06T01:35:57.000Z,18.80
2018-04-06T01:36:29.536Z,18.80
2018-04-06T01:37:01.228Z,18.80
2018-04-06T01:37:32.970Z,18.80
2018-04-06T01:38:04.700Z,18.80
2018-04-06T01:38:37.172Z,18.80
2018-04-06T01:39:08.899Z,18.80
2018-04-06T01:39:40.638Z,18.80
2018-04-06T01:40:12.369Z,18.80
2018-04-06T01:40:44.109Z,18.90
2018-04-06T01:41:15.856Z,18.90
2018-04-06T01:41:47.567Z,18.90
2018-04-06T01:42:19.299Z,18.90
2018-04-06T01:42:51.046Z,18.90
2018-04-06T01:43:22.760Z,18.90
2018-04-06T01:43:55.247Z,18.90
2018-04-06T01:44:26.988Z,18.90
2018-04-06T01:44:58.728Z,18.90
2018-04-06T01:45:30.452Z,18.80
2018-04-06T01:46:02.955Z,18.80
2018-04-06T01:46:34.673Z,18.80
2018-04-06T01:47:06.399Z,18.80
2018-04-06T01:47:38.895Z,18.70
2018-04-06T01:48:10.628Z,18.80
2018-04-06T01:48:42.408Z,18.80
2018-04-06T01:49:14.096Z,18.80
2018-04-06T01:49:46.575Z,18.80
2018-04-06T01:50:18.342Z,18.80
2018-04-06T01:50:50.060Z,18.80
2018-04-06T01:51:21.796Z,18.80
2018-04-06T01:51:54.292Z,18.80
2018-04-06T01:52:26.036Z,18.80
2018-04-06T01:52:57.800Z,18.80
2018-04-06T01:53:29.499Z,18.80
2018-04-06T01:54:01.988Z,18.90
2018-04-06T01:54:33.700Z,18.80
2018-04-06T01:55:05.430Z,18.80
2018-04-06T01:55:37.939Z,18.80
2018-04-06T01:56:09.684Z,18.80
2018-04-06T01:56:41.406Z,18.80
2018-04-06T01:57:13.134Z,18.80
2018-04-06T01:57:45.758Z,18.80
2018-04-06T01:58:17.542Z,18.80
2018-04-06T01:58:49.292Z,18.80
2018-04-06T01:59:21.014Z,18.80
2018-04-06T01:59:53.518Z,18.80
2018-04-06T02:00:25.240Z,18.80
2018-04-06T02:00:56.968Z,18.80
2018-04-06T02:01:29.463Z,18.80
2018-04-06T02:02:01.181Z,18.80
2018-04-06T02:02:33.695Z,18.70
2018-04-06T02:03:05.430Z,18.70
2018-04-06T02:03:37.138Z,18.70
2018-04-06T02:04:08.883Z,18.80
2018-04-06T02:04:40.610Z,18.80
2018-04-06T02:05:13.114Z,18.70
2018-04-06T02:05:44.858Z,18.70
2018-04-06T02:06:16.602Z,18.70
2018-04-06T02:06:48.323Z,18.70
2018-04-06T02:07:20.063Z,18.70
2018-04-06T02:07:51.844Z,18.70
2018-04-06T02:08:23.549Z,18.70
2018-04-06T02:08:56.039Z,18.60
2018-04-06T02:09:27.769Z,18.60
2018-04-06T02:09:59.507Z,18.70
2018-04-06T02:10:32.014Z,18.70
2018-04-06T02:11:03.752Z,18.70
2018-04-06T02:11:35.496Z,18.70
2018-04-06T02:12:07.271Z,18.70
2018-04-06T02:12:38.998Z,18.80
2018-04-06T02:13:10.724Z,18.70
2018-04-06T02:13:42.462Z,18.70
2018-04-06T02:14:14.187Z,18.70
2018-04-06T02:14:45.928Z,18.70
2018-04-06T02:15:17.657Z,18.70
2018-04-06T02:15:49.388Z,18.70
2018-04-06T02:16:21.914Z,18.70
2018-04-06T02:16:53.636Z,18.70
2018-04-06T02:17:25.353Z,18.80
2018-04-06T02:17:57.855Z,18.80
2018-04-06T02:18:29.576Z,18.80
2018-04-06T02:19:01.317Z,18.80
2018-04-06T02:19:33.034Z,18.80
2018-04-06T02:20:05.520Z,18.70
2018-04-06T02:20:37.243Z,18.70
2018-04-06T02:21:09.722Z,18.70
2018-04-06T02:21:41.450Z,18.60
2018-04-06T02:22:13.946Z,18.70
2018-04-06T02:22:45.672Z,18.70
2018-04-06T02:23:17.396Z,18.70
2018-04-06T02:23:49.892Z,18.60
2018-04-06T02:24:21.649Z,18.60
2018-04-06T02:24:53.439Z,18.70
2018-04-06T02:25:25.149Z,18.70
2018-04-06T02:25:56.885Z,18.70
2018-04-06T02:26:28.593Z,18.70
2018-04-06T02:27:00.314Z,18.80
2018-04-06T02:27:32.080Z,18.80
2018-04-06T02:28:04.548Z,18.70
2018-04-06T02:28:36.274Z,18.70
2018-04-06T02:29:08.767Z,18.70
2018-04-06T02:29:40.512Z,18.70
2018-04-06T02:30:12.236Z,18.70
2018-04-06T02:30:44.725Z,18.70
2018-04-06T02:31:16.577Z,18.70
2018-04-06T02:31:48.289Z,18.70
2018-04-06T02:32:20.789Z,18.70
2018-04-06T02:32:52.537Z,18.70
2018-04-06T02:33:24.308Z,18.70
2018-04-06T02:33:56.118Z,18.70
2018-04-06T02:34:27.833Z,18.70
2018-04-06T02:34:59.575Z,18.70
2018-04-06T02:35:31.297Z,18.70
2018-04-06T02:36:03.811Z,18.70
2018-04-06T02:36:35.512Z,18.70
2018-04-06T02:37:08.017Z,18.70
2018-04-06T02:37:39.726Z,18.70
2018-04-06T02:38:11.468Z,18.60
2018-04-06T02:38:43.976Z,18.70
2018-04-06T02:39:15.710Z,18.70
2018-04-06T02:39:47.446Z,18.60
2018-04-06T02:40:19.168Z,18.60
2018-04-06T02:40:50.892Z,18.60
2018-04-06T02:41:23.377Z,18.60
2018-04-06T02:41:55.098Z,18.60
2018-04-06T02:42:26.845Z,18.60
2018-04-06T02:42:59.347Z,18.60
2018-04-06T02:43:31.115Z,18.60
2018-04-06T02:44:02.815Z,18.60
2018-04-06T02:44:34.544Z,18.60
2018-04-06T02:45:07.037Z,18.70
2018-04-06T02:45:38.765Z,18.70
2018-04-06T02:46:10.490Z,18.60
2018-04-06T02:46:42.979Z,18.60
2018-04-06T02:47:14.710Z,18.70
2018-04-06T02:47:47.193Z,18.60
2018-04-06T02:48:18.903Z,18.60
2018-04-06T02:48:51.394Z,18.60
2018-04-06T02:49:23.139Z,18.60
2018-04-06T02:49:54.867Z,18.60
2018-04-06T02:50:27.361Z,18.60
2018-04-06T02:50:59.135Z,18.60
2018-04-06T02:51:30.846Z,18.60
2018-04-06T02:52:02.588Z,18.60
2018-04-06T02:52:34.343Z,18.60
2018-04-06T02:53:06.036Z,18.60
2018-04-06T02:53:38.525Z,18.70
2018-04-06T02:54:10.254Z,18.60
2018-04-06T02:54:42.731Z,18.70
2018-04-06T02:55:14.474Z,18.70
2018-04-06T02:55:46.957Z,18.70
2018-04-06T02:56:18.717Z,18.70
2018-04-06T02:56:50.425Z,18.70
2018-04-06T02:57:22.240Z,18.70
2018-04-06T02:57:54.739Z,18.60
2018-04-06T02:58:26.464Z,18.60
2018-04-06T02:58:58.947Z,18.70
2018-04-06T02:59:30.676Z,18.60
2018-04-06T03:00:02.468Z,18.60
2018-04-06T03:00:34.205Z,18.60
2018-04-06T03:01:05.944Z,18.60
2018-04-06T03:01:37.689Z,18.50
2018-04-06T03:02:09.437Z,18.50
2018-04-06T03:02:41.154Z,18.50
2018-04-06T03:03:12.877Z,18.50
2018-04-06T03:03:45.391Z,18.50
2018-04-06T03:04:17.162Z,18.50
2018-04-06T03:04:48.863Z,18.60
2018-04-06T03:05:20.586Z,18.50
2018-04-06T03:05:52.312Z,18.50
2018-04-06T03:06:24.799Z,18.50
2018-04-06T03:06:56.541Z,18.50
2018-04-06T03:07:28.277Z,18.50
2018-04-06T03:08:00.021Z,18.50
2018-04-06T03:08:31.761Z,18.60
2018-04-06T03:09:03.499Z,18.50
2018-04-06T03:09:35.995Z,18.50
2018-04-06T03:10:07.715Z,18.50
2018-04-06T03:10:40.220Z,18.50
2018-04-06T03:11:11.958Z,18.40
2018-04-06T03:11:43.690Z,18.40
2018-04-06T03:12:15.435Z,18.40
2018-04-06T03:12:47.169Z,18.40
2018-04-06T03:13:18.894Z,18.40
2018-04-06T03:13:50.631Z,18.40
2018-04-06T03:14:22.377Z,18.40
2018-04-06T03:14:54.922Z,18.40
2018-04-06T03:15:26.576Z,18.40
2018-04-06T03:15:59.140Z,18.40
2018-04-06T03:16:31.620Z,18.50
2018-04-06T03:17:03.362Z,18.50
2018-04-06T03:17:35.092Z,18.40
2018-04-06T03:18:07.602Z,18.40
2018-04-06T03:18:39.319Z,18.40
2018-04-06T03:19:11.052Z,18.40
2018-04-06T03:19:42.770Z,18.40
2018-04-06T03:20:14.519Z,18.30
2018-04-06T03:20:46.300Z,18.40
2018-04-06T03:21:18.776Z,18.40
2018-04-06T03:21:50.495Z,18.40
2018-04-06T03:22:22.226Z,18.40
2018-04-06T03:22:54.791Z,18.50
2018-04-06T03:23:27.280Z,18.50
2018-04-06T03:23:59.011Z,18.50
2018-04-06T03:24:30.732Z,18.60
2018-04-06T03:25:03.214Z,18.60
2018-04-06T03:25:34.955Z,18.60
2018-04-06T03:26:06.806Z,18.60
2018-04-06T03:26:38.531Z,18.50
2018-04-06T03:27:10.259Z,18.60
2018-04-06T03:27:42.005Z,18.60
2018-04-06T03:28:13.723Z,18.60
2018-04-06T03:28:45.477Z,18.60
2018-04-06T03:29:17.216Z,18.50
2018-04-06T03:29:48.927Z,18.50
2018-04-06T03:30:20.676Z,18.50
2018-04-06T03:30:52.399Z,18.50
2018-04-06T03:31:24.148Z,18.60
2018-04-06T03:31:55.888Z,18.50
2018-04-06T03:32:27.607Z,18.50
2018-04-06T03:33:00.116Z,18.50
2018-04-06T03:33:31.845Z,18.50
2018-04-06T03:34:03.591Z,18.50
2018-04-06T03:34:35.323Z,18.50
2018-04-06T03:35:07.817Z,18.50
2018-04-06T03:35:39.532Z,18.50
2018-04-06T03:36:12.059Z,18.40
2018-04-06T03:36:43.785Z,18.40
2018-04-06T03:37:15.505Z,18.40
2018-04-06T03:37:47.258Z,18.40
2018-04-06T03:38:18.951Z,18.40
2018-04-06T03:38:50.674Z,18.40
2018-04-06T03:39:22.411Z,18.40
2018-04-06T03:39:54.136Z,18.40
2018-04-06T03:40:25.852Z,18.40
2018-04-06T03:40:58.339Z,18.40
2018-04-06T03:41:30.143Z,18.40
2018-04-06T03:42:02.667Z,18.40
2018-04-06T03:42:34.435Z,18.50
2018-04-06T03:43:06.116Z,18.50
2018-04-06T03:43:37.849Z,18.40
2018-04-06T03:44:09.563Z,18.40
2018-04-06T03:44:41.309Z,18.50
2018-04-06T03:45:13.818Z,18.40
2018-04-06T03:45:45.538Z,18.50
2018-04-06T03:46:18.055Z,18.40
2018-04-06T03:46:49.746Z,18.50
2018-04-06T03:47:22.224Z,18.50
2018-04-06T03:47:53.969Z,18.50
2018-04-06T03:48:25.712Z,18.50
2018-04-06T03:48:57.442Z,18.50
2018-04-06T03:49:29.940Z,18.40
2018-04-06T03:50:01.703Z,18.40
2018-04-06T03:50:33.468Z,18.40
2018-04-06T03:51:05.189Z,18.40
2018-04-06T03:51:36.934Z,18.40
2018-04-06T03:52:08.685Z,18.40
2018-04-06T03:52:40.425Z,18.40
2018-04-06T03:53:12.147Z,18.30
2018-04-06T03:53:43.871Z,18.30
2018-04-06T03:54:15.602Z,18.30
2018-04-06T03:54:48.099Z,18.40
2018-04-06T03:55:19.840Z,18.40
2018-04-06T03:55:51.560Z,18.40
2018-04-06T03:56:23.293Z,18.40
2018-04-06T03:56:55.789Z,18.40
2018-04-06T03:57:27.595Z,18.40
2018-04-06T03:57:59.303Z,18.30
2018-04-06T03:58:31.024Z,18.30
2018-04-06T03:59:02.769Z,18.40
2018-04-06T03:59:34.491Z,18.30
2018-04-06T04:00:06.213Z,18.40
2018-04-06T04:00:38.711Z,18.40
2018-04-06T04:01:32.186Z,17.90
2018-04-06T04:02:03.895Z,18.30
2018-04-06T04:02:35.630Z,18.40
2018-04-06T04:03:08.120Z,18.40
2018-04-06T04:03:39.848Z,18.40
2018-04-06T04:04:11.577Z,18.40
2018-04-06T04:04:43.311Z,18.40
2018-04-06T04:05:15.791Z,18.40
2018-04-06T04:05:47.513Z,18.40
2018-04-06T04:06:19.255Z,18.40
2018-04-06T04:06:50.970Z,18.40
2018-04-06T04:07:22.696Z,18.40
2018-04-06T04:07:54.416Z,18.40
2018-04-06T04:08:26.133Z,18.40
2018-04-06T04:08:58.620Z,18.40
2018-04-06T04:09:30.363Z,18.40
2018-04-06T04:10:02.098Z,18.30
2018-04-06T04:10:34.614Z,18.20
2018-04-06T04:11:06.307Z,18.20
2018-04-06T04:11:38.063Z,18.10
2018-04-06T04:12:09.774Z,18.10
2018-04-06T04:12:42.285Z,18.10
2018-04-06T04:13:13.996Z,18.10
2018-04-06T04:13:45.765Z,18.10
2018-04-06T04:14:17.488Z,18.10
2018-04-06T04:14:49.216Z,18.00
2018-04-06T04:15:21.720Z,18.10
2018-04-06T04:15:53.456Z,18.10
2018-04-06T04:16:25.163Z,18.10
2018-04-06T04:16:57.667Z,18.10
2018-04-06T04:17:29.384Z,18.10
2018-04-06T04:18:01.115Z,18.10
2018-04-06T04:18:33.693Z,18.10
2018-04-06T04:19:06.183Z,18.00
2018-04-06T04:19:37.921Z,18.10
2018-04-06T04:20:09.640Z,18.00
2018-04-06T04:20:41.383Z,18.00
2018-04-06T04:21:13.866Z,18.00
2018-04-06T04:21:45.588Z,18.00
2018-04-06T04:22:17.320Z,18.00
2018-04-06T04:22:49.813Z,18.00
2018-04-06T04:23:21.567Z,18.00
2018-04-06T04:23:53.279Z,18.00
2018-04-06T04:24:25.018Z,18.00
2018-04-06T04:24:56.719Z,18.10
2018-04-06T04:25:28.460Z,18.10
2018-04-06T04:26:00.196Z,18.20
2018-04-06T04:26:31.927Z,18.20
2018-04-06T04:27:03.644Z,18.20
2018-04-06T04:27:35.423Z,18.30
2018-04-06T04:28:07.153Z,18.30
2018-04-06T04:28:38.876Z,18.30
2018-04-06T04:29:11.383Z,18.30
2018-04-06T04:29:43.120Z,18.30
2018-04-06T04:30:14.842Z,18.30
2018-04-06T04:30:46.711Z,18.40
2018-04-06T04:31:18.414Z,18.40
2018-04-06T04:31:50.906Z,18.40
2018-04-06T04:32:22.633Z,18.40
2018-04-06T04:32:54.352Z,18.40
2018-04-06T04:33:26.071Z,18.30
2018-04-06T04:33:57.788Z,18.40
2018-04-06T04:34:29.566Z,18.40
2018-04-06T04:35:01.232Z,18.40
2018-04-06T04:35:33.732Z,18.40
2018-04-06T04:36:05.451Z,18.40
2018-04-06T04:36:37.947Z,18.40
2018-04-06T04:37:09.654Z,18.50
2018-04-06T04:37:41.386Z,18.50
2018-04-06T04:38:13.112Z,18.50
2018-04-06T04:38:44.820Z,18.50
2018-04-06T04:39:16.575Z,18.50
2018-04-06T04:39:48.298Z,18.60
2018-04-06T04:40:20.007Z,18.60
2018-04-06T04:40:52.509Z,18.60
2018-04-06T04:41:24.245Z,18.60
2018-04-06T04:41:55.997Z,18.60
2018-04-06T04:42:27.779Z,18.60
2018-04-06T04:42:59.495Z,18.60
2018-04-06T04:43:31.252Z,18.70
2018-04-06T04:44:02.955Z,18.60
2018-04-06T04:44:34.683Z,18.60
2018-04-06T04:45:07.287Z,18.70
2018-04-06T04:45:39.741Z,18.60
2018-04-06T04:46:11.469Z,18.60
2018-04-06T04:46:43.302Z,18.60
2018-04-06T04:47:14.961Z,18.60
2018-04-06T04:47:46.685Z,18.60
2018-04-06T04:48:19.178Z,18.60
2018-04-06T04:48:50.929Z,18.60
2018-04-06T04:49:22.658Z,18.60
2018-04-06T04:49:55.377Z,18.60
2018-04-06T04:50:27.141Z,18.60
2018-04-06T04:50:58.854Z,18.60
2018-04-06T04:51:30.587Z,18.50
2018-04-06T04:52:02.324Z,18.50
2018-04-06T04:52:34.095Z,18.50
2018-04-06T04:53:05.795Z,18.50
2018-04-06T04:53:37.515Z,18.50
2018-04-06T04:54:10.015Z,18.50
2018-04-06T04:54:41.751Z,18.50
2018-04-06T04:55:13.459Z,18.60
2018-04-06T04:55:45.969Z,18.60
2018-04-06T04:56:17.696Z,18.60
2018-04-06T04:56:49.420Z,18.60
2018-04-06T04:57:21.164Z,18.60
2018-04-06T04:57:53.728Z,18.60
2018-04-06T04:58:26.213Z,18.60
2018-04-06T04:58:57.946Z,18.60
2018-04-06T04:59:29.686Z,18.60
2018-04-06T05:00:01.438Z,18.50
2018-04-06T05:00:33.153Z,18.50
2018-04-06T05:01:05.676Z,18.50
2018-04-06T05:01:37.383Z,18.50
2018-04-06T05:02:09.104Z,18.60
2018-04-06T05:02:41.616Z,18.60
2018-04-06T05:03:13.356Z,18.60
2018-04-06T05:03:45.081Z,18.60
2018-04-06T05:04:16.794Z,18.60
2018-04-06T05:04:48.516Z,18.60
2018-04-06T05:05:20.277Z,18.60
2018-04-06T05:05:51.999Z,18.60
2018-04-06T05:06:23.714Z,18.60
2018-04-06T05:06:55.469Z,18.60
2018-04-06T05:07:27.188Z,18.60
2018-04-06T05:07:58.924Z,18.60
2018-04-06T05:08:30.679Z,18.60
2018-04-06T05:09:02.406Z,18.60
2018-04-06T05:09:34.889Z,18.70
2018-04-06T05:10:06.620Z,18.70
2018-04-06T05:10:38.373Z,18.70
2018-04-06T05:11:10.100Z,18.70
2018-04-06T05:11:42.592Z,18.60
2018-04-06T05:12:14.333Z,18.70
2018-04-06T05:12:46.051Z,18.60
2018-04-06T05:13:18.549Z,18.60
2018-04-06T05:13:50.291Z,18.60
2018-04-06T05:14:21.996Z,18.60
2018-04-06T05:14:54.486Z,18.60
2018-04-06T05:15:26.232Z,18.60
2018-04-06T05:15:57.948Z,18.60
2018-04-06T05:16:30.461Z,18.70
2018-04-06T05:17:02.196Z,18.70
2018-04-06T05:17:33.964Z,18.70
2018-04-06T05:18:05.676Z,18.70
2018-04-06T05:18:37.400Z,18.60
2018-04-06T05:19:09.137Z,18.60
2018-04-06T05:19:41.631Z,18.60
2018-04-06T05:20:13.361Z,18.60
2018-04-06T05:20:45.093Z,18.60
2018-04-06T05:21:17.595Z,18.70
2018-04-06T05:21:49.322Z,18.70
2018-04-06T05:22:21.048Z,18.70
2018-04-06T05:22:52.770Z,18.70
2018-04-06T05:23:25.399Z,18.70
2018-04-06T05:23:57.096Z,18.70
2018-04-06T05:24:28.845Z,18.60
2018-04-06T05:25:01.310Z,18.60
2018-04-06T05:25:33.044Z,18.60
2018-04-06T05:26:04.772Z,18.60
2018-04-06T05:26:37.296Z,18.60
2018-04-06T05:27:08.998Z,18.60
2018-04-06T05:27:40.728Z,18.70
2018-04-06T05:28:12.447Z,18.60
2018-04-06T05:28:44.152Z,18.60
2018-04-06T05:29:15.900Z,18.60
2018-04-06T05:29:47.631Z,18.50
2018-04-06T05:30:19.348Z,18.60
2018-04-06T05:30:51.845Z,18.60
2018-04-06T05:31:23.580Z,18.60
2018-04-06T05:31:55.304Z,18.60
2018-04-06T05:32:27.805Z,18.60
2018-04-06T05:32:59.500Z,18.60
2018-04-06T05:33:31.991Z,18.70
2018-04-06T05:34:03.752Z,18.70
2018-04-06T05:34:35.481Z,18.70
2018-04-06T05:35:07.191Z,18.70
2018-04-06T05:35:39.715Z,18.70
2018-04-06T05:36:11.426Z,18.70
2018-04-06T05:36:43.192Z,18.70
2018-04-06T05:37:14.929Z,18.60
2018-04-06T05:37:46.637Z,18.60
2018-04-06T05:38:19.116Z,18.60
2018-04-06T05:38:50.919Z,18.60
2018-04-06T05:39:22.573Z,18.60
2018-04-06T05:39:54.294Z,18.60
2018-04-06T05:40:26.033Z,18.60
2018-04-06T05:40:57.742Z,18.60
2018-04-06T05:41:29.463Z,18.70
2018-04-06T05:42:01.962Z,18.60
2018-04-06T05:42:33.676Z,18.60
2018-04-06T05:43:05.404Z,18.60
2018-04-06T05:43:37.883Z,18.60
2018-04-06T05:44:09.606Z,18.60
2018-04-06T05:44:42.105Z,18.60
2018-04-06T05:45:13.916Z,18.60
2018-04-06T05:45:46.408Z,18.70
2018-04-06T05:46:18.183Z,18.60
2018-04-06T05:46:49.903Z,18.70
2018-04-06T05:47:21.647Z,18.70
2018-04-06T05:47:53.364Z,18.70
2018-04-06T05:48:25.901Z,18.60
2018-04-06T05:48:57.724Z,18.70
2018-04-06T05:49:29.450Z,18.70
2018-04-06T05:50:01.197Z,18.70
2018-04-06T05:50:32.924Z,18.70
2018-04-06T05:51:04.650Z,18.60
2018-04-06T05:51:37.157Z,18.70
2018-04-06T05:52:08.868Z,18.70
2018-04-06T05:52:40.621Z,18.70
2018-04-06T05:53:12.395Z,18.70
2018-04-06T05:53:44.126Z,18.80
2018-04-06T05:54:15.855Z,18.80
2018-04-06T05:54:47.572Z,18.80
2018-04-06T05:55:20.087Z,18.80
2018-04-06T05:55:51.839Z,18.80
2018-04-06T05:56:23.562Z,18.80
2018-04-06T05:56:55.310Z,18.80
2018-04-06T05:57:27.046Z,18.80
2018-04-06T05:57:58.771Z,18.90
2018-04-06T05:58:30.487Z,18.90
2018-04-06T05:59:02.987Z,18.90
2018-04-06T05:59:34.801Z,18.90
2018-04-06T06:00:06.528Z,18.90
2018-04-06T06:00:38.250Z,18.90
2018-04-06T06:01:09.975Z,18.90
2018-04-06T06:01:41.696Z,18.90
2018-04-06T06:02:13.432Z,18.90
2018-04-06T06:02:45.943Z,18.80
2018-04-06T06:03:17.644Z,18.80
2018-04-06T06:03:49.366Z,18.80
2018-04-06T06:04:21.127Z,18.90
2018-04-06T06:04:53.634Z,18.90
2018-04-06T06:05:25.351Z,18.90
2018-04-06T06:05:57.115Z,18.90
2018-04-06T06:06:28.840Z,18.90
2018-04-06T06:07:00.561Z,18.90
2018-04-06T06:07:33.048Z,18.90
2018-04-06T06:08:04.783Z,18.90
2018-04-06T06:08:36.527Z,18.90
2018-04-06T06:09:08.269Z,18.90
2018-04-06T06:09:40.755Z,18.90
2018-04-06T06:10:12.496Z,18.90
2018-04-06T06:10:44.212Z,18.90
2018-04-06T06:11:16.695Z,18.90
2018-04-06T06:11:48.422Z,18.90
2018-04-06T06:12:20.160Z,18.90
2018-04-06T06:12:52.632Z,18.90
2018-04-06T06:13:25.133Z,18.90
2018-04-06T06:13:56.858Z,18.90
2018-04-06T06:14:28.608Z,18.90
2018-04-06T06:15:00.315Z,18.90
2018-04-06T06:15:32.788Z,18.90
2018-04-06T06:16:04.524Z,18.90
2018-04-06T06:16:37.016Z,18.90
2018-04-06T06:17:08.728Z,18.90
2018-04-06T06:17:40.463Z,18.90
2018-04-06T06:18:12.956Z,18.90
2018-04-06T06:18:44.692Z,18.90
2018-04-06T06:19:16.416Z,18.90
2018-04-06T06:19:48.888Z,18.90
2018-04-06T06:20:20.628Z,18.90
2018-04-06T06:20:53.121Z,18.90
2018-04-06T06:21:24.871Z,18.90
2018-04-06T06:21:56.587Z,18.90
2018-04-06T06:22:28.324Z,18.90
2018-04-06T06:23:00.051Z,18.90
2018-04-06T06:23:31.771Z,18.90
2018-04-06T06:24:03.502Z,18.90
2018-04-06T06:24:35.217Z,18.90
2018-04-06T06:25:06.952Z,18.90
2018-04-06T06:25:38.680Z,18.90
2018-04-06T06:26:11.186Z,18.90
2018-04-06T06:26:42.923Z,18.90
2018-04-06T06:27:14.644Z,18.90
2018-04-06T06:27:46.413Z,18.90
2018-04-06T06:28:18.147Z,18.90
2018-04-06T06:28:49.862Z,18.90
2018-04-06T06:29:22.363Z,19.00
2018-04-06T06:29:54.088Z,18.90
2018-04-06T06:30:25.893Z,19.00
2018-04-06T06:30:57.623Z,18.90
2018-04-06T06:31:29.342Z,18.90
2018-04-06T06:32:01.068Z,18.90
2018-04-06T06:32:32.800Z,19.00
2018-04-06T06:33:04.543Z,19.00
2018-04-06T06:33:37.021Z,19.00
2018-04-06T06:34:08.742Z,18.90
2018-04-06T06:34:41.233Z,19.00
2018-04-06T06:35:12.952Z,19.00
2018-04-06T06:35:45.439Z,19.00
2018-04-06T06:36:17.160Z,19.00
2018-04-06T06:36:48.927Z,19.00
2018-04-06T06:37:20.602Z,19.00
2018-04-06T06:37:52.341Z,19.00
2018-04-06T06:38:24.082Z,18.90
2018-04-06T06:38:55.861Z,19.00
2018-04-06T06:39:27.580Z,18.90
2018-04-06T06:39:59.337Z,18.90
2018-04-06T06:40:31.095Z,19.00
2018-04-06T06:41:03.608Z,19.00
2018-04-06T06:41:35.324Z,19.00
2018-04-06T06:42:07.810Z,19.00
2018-04-06T06:42:39.529Z,19.00
2018-04-06T06:43:11.262Z,19.00
2018-04-06T06:43:43.770Z,19.00
2018-04-06T06:44:15.476Z,19.00
2018-04-06T06:44:47.970Z,19.00
2018-04-06T06:45:19.683Z,19.00
2018-04-06T06:45:51.427Z,19.00
2018-04-06T06:46:23.146Z,19.00
2018-04-06T06:46:54.871Z,19.00
2018-04-06T06:47:26.613Z,19.00
2018-04-06T06:47:58.350Z,19.00
2018-04-06T06:48:30.067Z,19.00
2018-04-06T06:49:01.815Z,19.00
2018-04-06T06:49:33.551Z,19.00
2018-04-06T06:50:05.283Z,19.00
2018-04-06T06:50:37.028Z,19.00
2018-04-06T06:51:08.752Z,19.00
2018-04-06T06:51:41.243Z,19.00
2018-04-06T06:52:12.969Z,19.00